createdAt,value
2022-09-30T00:02:12.670Z,99558.98
2022-09-30T00:04:44.620Z,99552.22
2022-09-30T00:07:16.635Z,99549.14
2022-09-30T00:09:48.803Z,99555.72
2022-09-30T00:12:21.001Z,99553.02
2022-09-30T00:14:52.905Z,99557.05
2022-09-30T00:17:25.021Z,99553.22
2022-09-30T00:19:57.176Z,99549.91
2022-09-30T00:22:29.149Z,99561.65
2022-09-30T00:25:01.166Z,99559.28
2022-09-30T00:27:33.312Z,99563.98
2022-09-30T00:30:05.650Z,99586.97
2022-09-30T00:32:37.625Z,99590.63
2022-09-30T00:35:09.745Z,99584.55
2022-09-30T00:37:41.677Z,99587.09
2022-09-30T00:40:13.586Z,99586.23
2022-09-30T00:42:46.356Z,99588.86
2022-09-30T00:45:21.743Z,99594.85
2022-09-30T00:48:00.942Z,99592.34
2022-09-30T00:50:52.585Z,99587.27
2022-09-30T00:53:39.273Z,99594.30
2022-09-30T00:56:13.956Z,99592.61
2022-09-30T00:58:57.682Z,99597.95
2022-09-30T01:01:29.908Z,99596.27
2022-09-30T01:04:04.839Z,99597.22
2022-09-30T01:06:36.808Z,99601.61
2022-09-30T01:09:09.628Z,99598.21
2022-09-30T01:11:41.585Z,99601.78
2022-09-30T01:14:19.283Z,99589.59
2022-09-30T01:17:03.010Z,99593.90
2022-09-30T01:20:03.642Z,99586.02
2022-09-30T01:22:42.086Z,99588.64
2022-09-30T01:25:46.972Z,99585.84
2022-09-30T01:28:27.260Z,99592.95
2022-09-30T01:31:24.616Z,99594.76
2022-09-30T01:34:21.925Z,99599.24
2022-09-30T01:37:05.827Z,99603.47
2022-09-30T01:40:08.577Z,99606.95
2022-09-30T01:42:43.554Z,99607.05
2022-09-30T01:45:21.294Z,99593.33
2022-09-30T01:47:56.087Z,99593.71
2022-09-30T01:50:45.815Z,99601.94
2022-09-30T01:53:23.720Z,99600.17
2022-09-30T01:55:58.828Z,99594.52
2022-09-30T01:58:33.708Z,99589.27
2022-09-30T02:01:08.663Z,99597.39
2022-09-30T02:03:52.678Z,99597.56
2022-09-30T02:06:27.551Z,99598.59
2022-09-30T02:09:08.013Z,99604.79
2022-09-30T02:11:42.469Z,99598.88
2022-09-30T02:14:15.218Z,99601.50
2022-09-30T02:16:53.541Z,99605.68
2022-09-30T02:19:40.245Z,99600.20
2022-09-30T02:22:21.271Z,99604.70
2022-09-30T02:24:59.084Z,99602.08
2022-09-30T02:27:37.206Z,99596.83
2022-09-30T02:30:11.961Z,99600.39
2022-09-30T02:32:49.691Z,99598.67
2022-09-30T02:35:30.416Z,99596.17
2022-09-30T02:38:06.484Z,99600.48
2022-09-30T02:40:49.058Z,99597.94
2022-09-30T02:43:21.928Z,99596.34
2022-09-30T02:46:13.595Z,99597.36
2022-09-30T02:49:03.429Z,99593.88
2022-09-30T02:52:02.240Z,99598.11
2022-09-30T02:54:40.095Z,99595.48
2022-09-30T02:57:38.905Z,99600.73
2022-09-30T03:00:13.095Z,99601.67
2022-09-30T03:02:44.795Z,99604.95
2022-09-30T03:05:17.654Z,99606.47
2022-09-30T03:07:49.765Z,99603.59
2022-09-30T03:10:22.107Z,99610.36
2022-09-30T03:13:08.470Z,99611.87
2022-09-30T03:16:06.065Z,99608.22
2022-09-30T03:19:06.436Z,99605.59
2022-09-30T03:21:50.367Z,99598.37
2022-09-30T03:24:59.875Z,99614.05
2022-09-30T03:27:52.489Z,99614.99
2022-09-30T03:30:29.055Z,99614.73
2022-09-30T03:33:09.871Z,99614.82
2022-09-30T03:35:59.731Z,99611.16
2022-09-30T03:38:51.027Z,99613.50
2022-09-30T03:41:38.268Z,99617.77
2022-09-30T03:44:28.177Z,99621.13
2022-09-30T03:47:05.893Z,99613.16
2022-09-30T03:49:55.801Z,99618.41
2022-09-30T03:52:30.408Z,99620.10
2022-09-30T03:55:05.307Z,99605.36
2022-09-30T03:57:37.532Z,99611.56
2022-09-30T04:00:10.240Z,99605.53
2022-09-30T04:02:42.482Z,99606.30
2022-09-30T04:05:14.488Z,99601.78
2022-09-30T04:07:47.423Z,99602.55
2022-09-30T04:10:19.775Z,99613.72
2022-09-30T04:12:54.910Z,99609.72
2022-09-30T04:15:27.455Z,99612.73
2022-09-30T04:18:00.320Z,99604.31
2022-09-30T04:20:33.199Z,99617.77
2022-09-30T04:23:05.233Z,99610.34
2022-09-30T04:25:37.833Z,99615.21
2022-09-30T04:28:09.959Z,99624.43
2022-09-30T04:30:41.930Z,99623.22
2022-09-30T04:33:14.133Z,99628.94
2022-09-30T04:35:46.199Z,99625.91
2022-09-30T04:38:18.266Z,99623.74
2022-09-30T04:40:50.247Z,99622.34
2022-09-30T04:43:23.599Z,99622.80
2022-09-30T04:45:55.627Z,99613.67
2022-09-30T04:48:29.492Z,99614.03
2022-09-30T04:51:01.551Z,99617.20
2022-09-30T04:53:34.770Z,99619.34
2022-09-30T04:56:07.897Z,99619.06
2022-09-30T04:58:40.486Z,99619.59
2022-09-30T05:01:15.500Z,99620.91
2022-09-30T05:03:49.073Z,99622.20
2022-09-30T05:06:21.261Z,99625.19
2022-09-30T05:08:53.362Z,99625.63
2022-09-30T05:11:26.372Z,99627.87
2022-09-30T05:13:58.608Z,99636.23
2022-09-30T05:16:30.903Z,99616.52
2022-09-30T05:19:03.659Z,99612.64
2022-09-30T05:21:35.785Z,99606.94
2022-09-30T05:24:08.016Z,99617.09
2022-09-30T05:26:40.413Z,99599.16
2022-09-30T05:29:12.505Z,99607.41
2022-09-30T05:31:44.591Z,99619.44
2022-09-30T05:34:19.623Z,99621.88
2022-09-30T05:36:51.856Z,99621.55
2022-09-30T05:39:24.035Z,99625.77
2022-09-30T05:41:58.539Z,99629.78
2022-09-30T05:44:30.480Z,99627.80
2022-09-30T05:47:02.811Z,99628.95
2022-09-30T05:49:35.126Z,99639.09
2022-09-30T05:52:07.803Z,99637.94
2022-09-30T05:54:40.408Z,99626.73
2022-09-30T05:57:12.392Z,99628.83
2022-09-30T05:59:44.960Z,99629.99
2022-09-30T06:02:17.201Z,99637.37
2022-09-30T06:04:49.167Z,99628.20
2022-09-30T06:07:21.445Z,99621.75
2022-09-30T06:09:53.710Z,99621.66
2022-09-30T06:12:27.234Z,99628.61
2022-09-30T06:14:59.502Z,99627.66
2022-09-30T06:17:33.230Z,99628.16
2022-09-30T06:20:05.761Z,99624.59
2022-09-30T06:22:38.696Z,99621.71
2022-09-30T06:25:11.022Z,99623.07
2022-09-30T06:27:47.609Z,99626.12
2022-09-30T06:30:19.961Z,99628.23
2022-09-30T06:32:52.267Z,99628.63
2022-09-30T06:35:25.035Z,99627.34
2022-09-30T06:37:57.268Z,99629.63
2022-09-30T06:40:29.703Z,99624.30
2022-09-30T06:43:02.150Z,99631.66
2022-09-30T06:45:35.742Z,99594.72
2022-09-30T06:48:11.363Z,99628.33
2022-09-30T06:50:53.730Z,99635.33
2022-09-30T06:53:17.915Z,99628.44
2022-09-30T06:55:51.411Z,99630.76
2022-09-30T06:58:24.570Z,99633.19
2022-09-30T07:01:02.407Z,99648.09
2022-09-30T07:03:37.818Z,99645.94
2022-09-30T07:06:10.161Z,99643.56
2022-09-30T07:08:42.494Z,99622.78
2022-09-30T07:11:17.676Z,99638.26
2022-09-30T07:13:50.538Z,99638.26
2022-09-30T07:16:24.627Z,99637.96
2022-09-30T07:18:57.309Z,99640.64
2022-09-30T07:21:31.521Z,99637.77
2022-09-30T07:24:04.000Z,99640.44
2022-09-30T07:26:36.470Z,99637.61
2022-09-30T07:29:08.661Z,99642.50
2022-09-30T07:31:41.321Z,99639.70
2022-09-30T07:34:13.777Z,99639.75
2022-09-30T07:36:46.034Z,99639.75
2022-09-30T07:39:18.184Z,99638.04
2022-09-30T07:41:50.330Z,99636.70
2022-09-30T07:44:22.718Z,99629.19
2022-09-30T07:46:55.068Z,99628.80
2022-09-30T07:49:27.167Z,99621.78
2022-09-30T07:52:00.037Z,99624.59
2022-09-30T07:54:40.249Z,99637.30
2022-09-30T07:57:10.446Z,99642.34
2022-09-30T07:59:43.305Z,99638.61
2022-09-30T08:02:20.651Z,99635.25
2022-09-30T08:04:52.834Z,99630.46
2022-09-30T08:07:24.787Z,99626.52
2022-09-30T08:09:56.756Z,99624.34
2022-09-30T08:12:28.860Z,99622.29
2022-09-30T08:15:00.810Z,99624.33
2022-09-30T08:17:32.963Z,99626.81
2022-09-30T08:20:09.552Z,99617.67
2022-09-30T08:22:39.182Z,99627.48
2022-09-30T08:25:11.921Z,99618.66
2022-09-30T08:27:43.906Z,99617.36
2022-09-30T08:30:16.059Z,99617.96
2022-09-30T08:32:48.181Z,99616.42
2022-09-30T08:35:20.084Z,99615.66
2022-09-30T08:37:52.138Z,99601.97
2022-09-30T08:40:30.565Z,99611.28
2022-09-30T08:43:11.939Z,99607.00
2022-09-30T08:45:56.157Z,99602.84
2022-09-30T08:48:31.070Z,99607.08
2022-09-30T08:51:25.013Z,99618.28
2022-09-30T08:53:59.202Z,99608.75
2022-09-30T08:56:35.753Z,99617.15
2022-09-30T08:59:30.392Z,99601.87
2022-09-30T09:02:05.329Z,99605.27
2022-09-30T09:07:39.791Z,99607.56
2022-09-30T09:10:24.490Z,99609.01
2022-09-30T09:13:08.421Z,99608.28
2022-09-30T09:15:43.453Z,99599.70
2022-09-30T09:18:30.436Z,99594.89
2022-09-30T09:21:21.761Z,99596.02
2022-09-30T09:23:56.738Z,99599.96
2022-09-30T09:26:30.925Z,99602.50
2022-09-30T09:29:15.731Z,99598.03
2022-09-30T09:31:48.545Z,99607.03
2022-09-30T09:34:20.885Z,99604.81
2022-09-30T09:37:26.008Z,99621.86
2022-09-30T09:40:04.181Z,99616.24
2022-09-30T09:43:12.629Z,99611.60
2022-09-30T09:46:04.004Z,99611.45
2022-09-30T09:48:36.254Z,99610.72
2022-09-30T09:51:16.969Z,99618.70
2022-09-30T09:53:53.017Z,99618.17
2022-09-30T09:56:33.454Z,99609.47
2022-09-30T09:59:10.807Z,99604.87
2022-09-30T10:01:46.270Z,99606.28
2022-09-30T10:04:27.721Z,99605.03
2022-09-30T10:07:05.364Z,99603.77
2022-09-30T10:09:39.933Z,99611.19
2022-09-30T10:12:18.159Z,99604.20
2022-09-30T10:15:02.028Z,99603.51
2022-09-30T10:17:39.686Z,99593.71
2022-09-30T10:20:23.729Z,99595.51
2022-09-30T10:23:11.351Z,99592.55
2022-09-30T10:25:46.213Z,99592.66
2022-09-30T10:28:27.258Z,99584.15
2022-09-30T10:31:09.125Z,99586.84
2022-09-30T10:33:47.333Z,99583.18
2022-09-30T10:36:22.094Z,99583.70
2022-09-30T10:39:03.968Z,99579.97
2022-09-30T10:41:36.755Z,99581.12
2022-09-30T10:44:17.853Z,99591.27
2022-09-30T10:46:54.839Z,99586.81
2022-09-30T10:49:32.615Z,99586.41
2022-09-30T10:52:05.069Z,99593.12
2022-09-30T10:54:43.134Z,99582.89
2022-09-30T10:57:33.037Z,99589.19
2022-09-30T11:00:17.416Z,99582.34
2022-09-30T11:03:02.252Z,99585.83
2022-09-30T11:05:35.017Z,99579.02
2022-09-30T11:08:21.611Z,99588.66
2022-09-30T11:11:09.521Z,99587.77
2022-09-30T11:13:54.764Z,99585.33
2022-09-30T11:16:32.064Z,99585.00
2022-09-30T11:19:19.402Z,99585.94
2022-09-30T11:21:54.570Z,99589.77
2022-09-30T11:24:32.487Z,99581.47
2022-09-30T11:27:13.622Z,99578.48
2022-09-30T11:29:51.669Z,99577.61
2022-09-30T11:32:35.560Z,99575.55
2022-09-30T11:35:13.457Z,99575.24
2022-09-30T11:37:57.106Z,99582.52
2022-09-30T11:40:44.132Z,99582.10
2022-09-30T11:43:30.933Z,99587.16
2022-09-30T11:46:22.124Z,99583.89
2022-09-30T11:49:15.459Z,99583.93
2022-09-30T11:52:05.978Z,99593.97
2022-09-30T11:55:02.035Z,99587.92
2022-09-30T11:57:37.155Z,99589.83
2022-09-30T12:00:12.212Z,99601.13
2022-09-30T12:02:53.550Z,99604.86
2022-09-30T12:05:40.317Z,99602.13
2022-09-30T12:08:21.262Z,99613.39
2022-09-30T12:10:59.362Z,99616.07
2022-09-30T12:13:36.507Z,99607.91
2022-09-30T12:16:11.865Z,99606.86
2022-09-30T12:18:49.996Z,99597.09
2022-09-30T12:21:28.151Z,99600.89
2022-09-30T12:24:24.701Z,99602.28
2022-09-30T12:26:57.243Z,99610.38
2022-09-30T12:29:45.742Z,99605.72
2022-09-30T12:32:40.822Z,99606.19
2022-09-30T12:35:43.062Z,99605.23
2022-09-30T12:38:43.606Z,99606.97
2022-09-30T12:41:34.183Z,99600.25
2022-09-30T12:44:12.139Z,99606.23
2022-09-30T12:46:59.016Z,99604.86
2022-09-30T12:49:33.677Z,99607.67
2022-09-30T12:52:08.931Z,99605.44
2022-09-30T12:54:53.100Z,99605.45
2022-09-30T12:57:34.336Z,99599.89
2022-09-30T13:00:09.617Z,99602.71
2022-09-30T13:02:44.949Z,99602.34
2022-09-30T13:05:35.055Z,99594.25
2022-09-30T13:08:11.334Z,99597.14
2022-09-30T13:10:48.704Z,99596.12
2022-09-30T13:13:35.176Z,99602.95
2022-09-30T13:16:07.674Z,99602.47
2022-09-30T13:18:42.653Z,99610.42
2022-09-30T13:21:23.170Z,99609.39
2022-09-30T13:23:57.681Z,99615.61
2022-09-30T13:26:33.091Z,99612.25
2022-09-30T13:29:17.401Z,99613.41
2022-09-30T13:31:56.499Z,99609.36
2022-09-30T13:34:36.570Z,99614.73
2022-09-30T13:37:11.677Z,99615.02
2022-09-30T13:39:52.634Z,99614.47
2022-09-30T13:42:30.579Z,99625.97
2022-09-30T13:45:08.949Z,99626.62
2022-09-30T13:47:43.828Z,99631.39
2022-09-30T13:50:24.677Z,99636.43
2022-09-30T13:53:05.628Z,99631.52
2022-09-30T13:55:40.768Z,99646.92
2022-09-30T13:58:33.905Z,99639.51
2022-09-30T14:01:27.054Z,99643.42
2022-09-30T14:04:33.577Z,99643.69
2022-09-30T14:07:16.524Z,99650.95
2022-09-30T14:10:08.411Z,99648.84
2022-09-30T14:12:52.381Z,99639.20
2022-09-30T14:15:39.360Z,99654.70
2022-09-30T14:18:23.261Z,99657.66
2022-09-30T14:21:14.852Z,99659.86
2022-09-30T14:23:47.055Z,99660.54
2022-09-30T14:26:40.069Z,99659.00
2022-09-30T14:29:39.009Z,99662.90
2022-09-30T14:32:18.716Z,99659.81
2022-09-30T14:34:52.168Z,99657.96
2022-09-30T14:37:36.400Z,99657.28
2022-09-30T14:40:13.112Z,99655.42
2022-09-30T14:42:48.251Z,99662.11
2022-09-30T14:45:29.613Z,99665.17
2022-09-30T14:48:05.222Z,99666.16
2022-09-30T14:50:40.906Z,99669.64
2022-09-30T14:53:28.687Z,99674.95
2022-09-30T14:56:02.884Z,99675.94
2022-09-30T14:58:45.389Z,99677.73
2022-09-30T15:01:26.444Z,99679.70
2022-09-30T15:04:02.149Z,99681.63
2022-09-30T15:06:37.104Z,99678.97
2022-09-30T15:09:35.769Z,99679.95
2022-09-30T15:12:14.007Z,99682.61
2022-09-30T15:14:54.656Z,99684.41
2022-09-30T15:17:29.903Z,99687.36
2022-09-30T15:20:02.897Z,99692.80
2022-09-30T15:22:35.855Z,99694.72
2022-09-30T15:25:14.010Z,99696.55
2022-09-30T15:27:46.511Z,99700.31
2022-09-30T15:30:22.399Z,99719.03
2022-09-30T15:33:06.713Z,99696.23
2022-09-30T15:35:39.177Z,99713.12
2022-09-30T15:38:26.162Z,99709.77
2022-09-30T15:41:04.968Z,99713.77
2022-09-30T15:43:50.965Z,99721.86
2022-09-30T15:46:33.933Z,99732.04
2022-09-30T15:49:09.312Z,99729.63
2022-09-30T15:51:44.843Z,99734.48
2022-09-30T15:54:33.128Z,99739.46
2022-09-30T15:57:08.841Z,99735.49
2022-09-30T16:00:04.883Z,99736.72
2022-09-30T16:02:40.349Z,99735.25
2022-09-30T16:05:11.970Z,99739.61
2022-09-30T16:07:45.405Z,99737.90
2022-09-30T16:10:22.330Z,99738.30
2022-09-30T16:12:55.659Z,99737.32
2022-09-30T16:15:28.577Z,99737.69
2022-09-30T16:18:03.982Z,99744.82
2022-09-30T16:20:35.945Z,99742.29
2022-09-30T16:23:11.225Z,99743.97
2022-09-30T16:25:44.875Z,99746.62
2022-09-30T16:28:18.230Z,99745.77
2022-09-30T16:30:54.716Z,99743.51
2022-09-30T16:33:27.232Z,99751.47
2022-09-30T16:36:02.761Z,99750.03
2022-09-30T16:38:35.548Z,99753.90
2022-09-30T16:41:09.762Z,99753.16
2022-09-30T16:43:43.944Z,99755.81
2022-09-30T16:46:20.127Z,99759.69
2022-09-30T16:48:55.100Z,99764.75
2022-09-30T16:51:27.972Z,99764.41
2022-09-30T16:54:00.776Z,99762.73
2022-09-30T16:56:35.103Z,99768.27
2022-09-30T16:59:19.365Z,99762.73
2022-09-30T17:01:52.356Z,99762.96
2022-09-30T17:04:25.455Z,99756.80
2022-09-30T17:07:00.342Z,99761.16
2022-09-30T17:09:33.010Z,99761.16
2022-09-30T17:12:06.795Z,99761.28
2022-09-30T17:14:39.177Z,99768.39
2022-09-30T17:17:14.113Z,99782.63
2022-09-30T17:19:47.320Z,99778.02
2022-09-30T17:22:19.768Z,99779.00
2022-09-30T17:24:52.552Z,99779.00
2022-09-30T17:27:25.581Z,99779.00
2022-09-30T17:29:58.487Z,99779.73
2022-09-30T17:32:32.639Z,99776.23
2022-09-30T17:35:07.382Z,99774.43
2022-09-30T17:37:43.816Z,99774.43
2022-09-30T17:40:28.183Z,99781.02
2022-09-30T17:43:11.328Z,99773.45
2022-09-30T17:45:46.699Z,99776.34
2022-09-30T17:48:21.003Z,99775.76
2022-09-30T17:50:54.903Z,99775.76
2022-09-30T17:53:29.346Z,99774.08
2022-09-30T17:56:11.871Z,99765.27
2022-09-30T17:58:48.022Z,99774.08
2022-09-30T18:01:22.459Z,99774.08
2022-09-30T18:03:56.631Z,99770.69
2022-09-30T18:06:36.274Z,99768.03
2022-09-30T18:09:02.864Z,99773.22
2022-09-30T18:11:39.299Z,99772.47
2022-09-30T18:14:11.057Z,99760.66
2022-09-30T18:16:44.470Z,99764.29
2022-09-30T18:19:16.622Z,99773.22
2022-09-30T18:21:49.221Z,99777.08
2022-09-30T18:24:22.962Z,99786.84
2022-09-30T18:26:55.532Z,99793.97
2022-09-30T18:29:28.479Z,99785.90
2022-09-30T18:32:01.163Z,99783.36
2022-09-30T18:34:34.848Z,99777.08
2022-09-30T18:37:07.518Z,99784.07
2022-09-30T18:39:40.347Z,99789.38
2022-09-30T18:42:13.267Z,99785.75
2022-09-30T18:44:46.183Z,99784.54
2022-09-30T18:47:19.430Z,99793.47
2022-09-30T18:49:51.716Z,99790.82
2022-09-30T18:52:23.974Z,99791.80
2022-09-30T18:54:55.950Z,99794.45
2022-09-30T18:57:28.413Z,99796.24
2022-09-30T19:00:02.115Z,99793.86
2022-09-30T19:02:34.624Z,99794.09
2022-09-30T19:05:08.375Z,99809.15
2022-09-30T19:07:40.680Z,99795.89
2022-09-30T19:10:13.215Z,99789.88
2022-09-30T19:12:45.507Z,99796.98
2022-09-30T19:15:17.882Z,99797.09
2022-09-30T19:17:51.131Z,99805.05
2022-09-30T19:20:23.509Z,99803.37
2022-09-30T19:22:56.152Z,99806.73
2022-09-30T19:25:28.489Z,99808.44
2022-09-30T19:28:01.970Z,99805.79
2022-09-30T19:30:34.579Z,99808.56
2022-09-30T19:33:07.171Z,99808.44
2022-09-30T19:35:41.090Z,99807.47
2022-09-30T19:38:14.149Z,99808.44
2022-09-30T19:40:46.428Z,99805.79
2022-09-30T19:43:19.556Z,99814.69
2022-09-30T19:45:58.535Z,99821.94
2022-09-30T19:48:35.211Z,99813.01
2022-09-30T19:51:10.528Z,99815.66
2022-09-30T19:53:50.575Z,99820.14
2022-09-30T19:56:23.723Z,99826.39
2022-09-30T19:58:57.998Z,99829.19
2022-09-30T20:01:31.364Z,99828.45
2022-09-30T20:04:05.828Z,99827.73
2022-09-30T20:06:38.547Z,99833.16
2022-09-30T20:09:10.803Z,99833.27
2022-09-30T20:11:45.624Z,99829.88
2022-09-30T20:14:35.581Z,99832.30
2022-09-30T20:17:07.940Z,99835.19
2022-09-30T20:19:40.280Z,99840.48
2022-09-30T20:22:15.401Z,99839.77
2022-09-30T20:24:48.476Z,99844.34
2022-09-30T20:27:21.140Z,99840.98
2022-09-30T20:29:53.612Z,99845.69
2022-09-30T20:32:28.826Z,99847.59
2022-09-30T20:35:00.952Z,99841.44
2022-09-30T20:37:33.219Z,99850.25
2022-09-30T20:40:06.106Z,99849.27
2022-09-30T20:42:41.704Z,99842.17
2022-09-30T20:45:15.579Z,99843.14
2022-09-30T20:47:48.506Z,99842.41
2022-09-30T20:50:22.919Z,99848.67
2022-09-30T20:52:55.114Z,99835.42
2022-09-30T20:55:27.203Z,99838.93
2022-09-30T20:57:59.633Z,99841.44
2022-09-30T21:00:32.976Z,99843.97
2022-09-30T21:03:05.771Z,99832.54
2022-09-30T21:05:38.511Z,99836.98
2022-09-30T21:08:11.052Z,99845.80
2022-09-30T21:10:43.237Z,99840.49
2022-09-30T21:13:15.303Z,99842.17
2022-09-30T21:15:47.487Z,99844.83
2022-09-30T21:18:19.643Z,99846.51
2022-09-30T21:20:58.886Z,99856.29
2022-09-30T21:23:33.474Z,99845.69
2022-09-30T21:26:06.097Z,99846.51
2022-09-30T21:28:38.124Z,99853.66
2022-09-30T21:31:13.706Z,99856.88
2022-09-30T21:33:47.904Z,99853.75
2022-09-30T21:36:21.366Z,99853.98
2022-09-30T21:38:55.055Z,99850.36
2022-09-30T21:41:27.583Z,99843.60
2022-09-30T21:44:00.763Z,99842.77
2022-09-30T21:46:32.867Z,99844.69
2022-09-30T21:49:10.305Z,99849.88
2022-09-30T21:51:42.487Z,99844.57
2022-09-30T21:54:14.968Z,99849.88
2022-09-30T21:56:49.654Z,99848.19
2022-09-30T21:59:22.705Z,99844.80
2022-09-30T22:01:55.082Z,99852.75
2022-09-30T22:04:27.182Z,99853.83
2022-09-30T22:06:59.491Z,99843.45
2022-09-30T22:09:37.181Z,99841.37
2022-09-30T22:12:06.995Z,99844.36
2022-09-30T22:14:38.842Z,99848.91
2022-09-30T22:17:10.815Z,99852.56
2022-09-30T22:19:43.130Z,99850.36
2022-09-30T22:22:15.078Z,99849.76
2022-09-30T22:24:48.144Z,99847.33
2022-09-30T22:27:20.992Z,99841.31
2022-09-30T22:29:52.886Z,99849.81
2022-09-30T22:32:24.890Z,99841.87
2022-09-30T22:35:14.682Z,99843.06
2022-09-30T22:38:09.203Z,99840.77
2022-09-30T22:40:41.374Z,99834.73
2022-09-30T22:43:13.654Z,99838.45
2022-09-30T22:45:45.876Z,99838.06
2022-09-30T22:48:18.439Z,99834.56
2022-09-30T22:50:50.543Z,99833.23
2022-09-30T22:53:22.814Z,99835.14
2022-09-30T22:55:55.443Z,99829.84
2022-09-30T22:58:28.332Z,99831.78
2022-09-30T23:01:00.554Z,99824.77
2022-09-30T23:03:32.950Z,99827.55
2022-09-30T23:06:06.512Z,99834.75
2022-09-30T23:08:43.031Z,99825.95
2022-09-30T23:11:20.010Z,99829.45
2022-09-30T23:13:58.798Z,99839.94
2022-09-30T23:16:27.523Z,99834.64
2022-09-30T23:18:59.632Z,99833.67
2022-09-30T23:21:33.932Z,99833.67
2022-09-30T23:24:05.649Z,99837.29
2022-09-30T23:26:37.488Z,99836.44
2022-09-30T23:29:12.417Z,99830.81
2022-09-30T23:31:44.431Z,99823.69
2022-09-30T23:34:17.441Z,99831.52
2022-09-30T23:36:49.716Z,99834.06
2022-09-30T23:39:21.972Z,99828.77
2022-09-30T23:41:54.323Z,99834.81
2022-09-30T23:44:28.195Z,99832.98
2022-09-30T23:47:18.363Z,99826.62
2022-09-30T23:49:51.017Z,99830.02
2022-09-30T23:52:22.962Z,99830.02
2022-09-30T23:54:55.150Z,99836.17
2022-09-30T23:57:27.458Z,99830.12
2022-09-30T23:59:59.539Z,99830.12
